sensor_id;sensor_type;location;lat;lon;timestamp;pressure;altitude;pressure_sealevel;temperature;humidity
66543;BME280;53395;37.360;-122.046;2024-03-17T00:01:58;100939.34;;;20.80;51.14
66543;BME280;53395;37.360;-122.046;2024-03-17T00:04:43;100933.59;;;20.58;51.30
66543;BME280;53395;37.360;-122.046;2024-03-17T00:07:28;100938.91;;;20.88;50.46
66543;BME280;53395;37.360;-122.046;2024-03-17T00:10:13;100932.22;;;20.35;49.67
66543;BME280;53395;37.360;-122.046;2024-03-17T00:12:59;100942.13;;;20.31;49.28
66543;BME280;53395;37.360;-122.046;2024-03-17T00:15:50;100946.25;;;20.37;47.23
66543;BME280;53395;37.360;-122.046;2024-03-17T00:18:35;100942.47;;;20.57;47.82
66543;BME280;53395;37.360;-122.046;2024-03-17T00:21:21;100945.88;;;20.27;45.05
66543;BME280;53395;37.360;-122.046;2024-03-17T00:24:06;100949.97;;;20.01;44.75
66543;BME280;53395;37.360;-122.046;2024-03-17T00:26:52;100956.59;;;20.25;45.89
66543;BME280;53395;37.360;-122.046;2024-03-17T00:29:37;100955.22;;;20.34;45.85
66543;BME280;53395;37.360;-122.046;2024-03-17T00:32:23;100951.47;;;20.06;47.23
66543;BME280;53395;37.360;-122.046;2024-03-17T00:35:09;100950.09;;;20.31;48.03
66543;BME280;53395;37.360;-122.046;2024-03-17T00:37:58;100953.81;;;19.62;50.19
66543;BME280;53395;37.360;-122.046;2024-03-17T00:40:44;100961.53;;;19.67;47.91
66543;BME280;53395;37.360;-122.046;2024-03-17T00:43:29;100966.94;;;19.30;50.00
66543;BME280;53395;37.360;-122.046;2024-03-17T00:46:14;100964.31;;;19.48;49.76
66543;BME280;53395;37.360;-122.046;2024-03-17T00:48:59;100944.53;;;19.03;52.50
66543;BME280;53395;37.360;-122.046;2024-03-17T00:51:44;100960.91;;;18.74;57.26
66543;BME280;53395;37.360;-122.046;2024-03-17T00:54:32;100963.28;;;18.80;62.15
66543;BME280;53395;37.360;-122.046;2024-03-17T00:57:17;100963.13;;;18.65;68.06
66543;BME280;53395;37.360;-122.046;2024-03-17T01:00:02;100962.03;;;18.51;71.86
66543;BME280;53395;37.360;-122.046;2024-03-17T01:02:48;100957.03;;;18.26;80.62
66543;BME280;53395;37.360;-122.046;2024-03-17T01:05:32;100962.28;;;18.09;99.76
66543;BME280;53395;37.360;-122.046;2024-03-17T01:08:18;100962.38;;;18.25;100.00
66543;BME280;53395;37.360;-122.046;2024-03-17T01:11:03;100963.25;;;17.87;100.00
66543;BME280;53395;37.360;-122.046;2024-03-17T01:13:50;100969.59;;;17.63;100.00
66543;BME280;53395;37.360;-122.046;2024-03-17T01:16:36;100971.94;;;17.50;100.00
66543;BME280;53395;37.360;-122.046;2024-03-17T01:19:21;100964.88;;;17.50;100.00
66543;BME280;53395;37.360;-122.046;2024-03-17T01:22:05;100966.25;;;17.18;100.00
66543;BME280;53395;37.360;-122.046;2024-03-17T01:24:50;100967.97;;;17.19;100.00
66543;BME280;53395;37.360;-122.046;2024-03-17T01:27:35;100970.66;;;17.18;100.00
66543;BME280;53395;37.360;-122.046;2024-03-17T01:30:20;100962.72;;;16.75;100.00
66543;BME280;53395;37.360;-122.046;2024-03-17T01:33:04;100968.75;;;16.79;100.00
66543;BME280;53395;37.360;-122.046;2024-03-17T01:35:49;100977.00;;;16.69;100.00
66543;BME280;53395;37.360;-122.046;2024-03-17T01:38:35;100982.78;;;16.57;100.00
66543;BME280;53395;37.360;-122.046;2024-03-17T01:41:20;100985.69;;;16.51;100.00
66543;BME280;53395;37.360;-122.046;2024-03-17T01:44:05;100993.19;;;16.38;100.00
66543;BME280;53395;37.360;-122.046;2024-03-17T01:46:51;100982.16;;;16.28;100.00
66543;BME280;53395;37.360;-122.046;2024-03-17T01:49:36;100996.28;;;16.27;100.00
66543;BME280;53395;37.360;-122.046;2024-03-17T01:52:21;100995.22;;;16.32;100.00
66543;BME280;53395;37.360;-122.046;2024-03-17T01:55:06;101005.25;;;15.98;100.00
66543;BME280;53395;37.360;-122.046;2024-03-17T01:57:52;101008.13;;;15.92;100.00
66543;BME280;53395;37.360;-122.046;2024-03-17T02:00:37;101016.38;;;15.83;100.00
66543;BME280;53395;37.360;-122.046;2024-03-17T02:03:22;101022.88;;;15.73;100.00
66543;BME280;53395;37.360;-122.046;2024-03-17T02:06:08;101017.34;;;15.54;100.00
66543;BME280;53395;37.360;-122.046;2024-03-17T02:08:56;101028.69;;;15.56;100.00
66543;BME280;53395;37.360;-122.046;2024-03-17T02:11:40;101033.69;;;15.38;100.00
66543;BME280;53395;37.360;-122.046;2024-03-17T02:14:26;101038.81;;;15.43;100.00
66543;BME280;53395;37.360;-122.046;2024-03-17T02:17:11;101039.63;;;15.18;100.00
66543;BME280;53395;37.360;-122.046;2024-03-17T02:19:56;101046.75;;;15.41;100.00
66543;BME280;53395;37.360;-122.046;2024-03-17T02:22:41;101057.38;;;15.12;100.00
66543;BME280;53395;37.360;-122.046;2024-03-17T02:25:26;101056.22;;;15.20;100.00
66543;BME280;53395;37.360;-122.046;2024-03-17T02:28:11;101060.91;;;15.12;100.00
66543;BME280;53395;37.360;-122.046;2024-03-17T02:30:55;101062.03;;;15.04;100.00
66543;BME280;53395;37.360;-122.046;2024-03-17T02:33:40;101075.03;;;14.82;100.00
66543;BME280;53395;37.360;-122.046;2024-03-17T02:36:26;101080.28;;;14.82;100.00
66543;BME280;53395;37.360;-122.046;2024-03-17T02:39:11;101094.19;;;14.85;100.00
66543;BME280;53395;37.360;-122.046;2024-03-17T02:42:14;101096.84;;;14.55;100.00
66543;BME280;53395;37.360;-122.046;2024-03-17T02:44:59;101106.13;;;14.67;100.00
66543;BME280;53395;37.360;-122.046;2024-03-17T02:47:44;101101.97;;;14.90;100.00
66543;BME280;53395;37.360;-122.046;2024-03-17T02:50:29;101109.28;;;14.49;100.00
66543;BME280;53395;37.360;-122.046;2024-03-17T02:53:14;101114.34;;;14.56;100.00
66543;BME280;53395;37.360;-122.046;2024-03-17T02:55:59;101117.97;;;14.51;100.00
66543;BME280;53395;37.360;-122.046;2024-03-17T02:58:45;101122.78;;;14.36;100.00
66543;BME280;53395;37.360;-122.046;2024-03-17T03:01:36;101116.69;;;14.34;100.00
66543;BME280;53395;37.360;-122.046;2024-03-17T03:04:21;101124.25;;;14.47;100.00
66543;BME280;53395;37.360;-122.046;2024-03-17T03:07:06;101127.13;;;14.37;100.00
66543;BME280;53395;37.360;-122.046;2024-03-17T03:09:51;101129.16;;;14.28;100.00
66543;BME280;53395;37.360;-122.046;2024-03-17T03:12:35;101138.00;;;14.25;100.00
66543;BME280;53395;37.360;-122.046;2024-03-17T03:15:20;101141.78;;;14.15;100.00
66543;BME280;53395;37.360;-122.046;2024-03-17T03:18:05;101146.38;;;14.07;100.00
66543;BME280;53395;37.360;-122.046;2024-03-17T03:20:51;101154.44;;;13.99;100.00
66543;BME280;53395;37.360;-122.046;2024-03-17T03:23:37;101162.97;;;14.09;100.00
66543;BME280;53395;37.360;-122.046;2024-03-17T03:26:22;101164.16;;;13.97;100.00
66543;BME280;53395;37.360;-122.046;2024-03-17T03:29:07;101168.66;;;13.92;100.00
66543;BME280;53395;37.360;-122.046;2024-03-17T03:31:52;101173.91;;;13.92;100.00
66543;BME280;53395;37.360;-122.046;2024-03-17T03:34:37;101176.66;;;13.87;100.00
66543;BME280;53395;37.360;-122.046;2024-03-17T03:37:23;101190.91;;;13.79;100.00
66543;BME280;53395;37.360;-122.046;2024-03-17T03:40:08;101182.34;;;13.70;100.00
66543;BME280;53395;37.360;-122.046;2024-03-17T03:43:02;101191.16;;;13.68;100.00
66543;BME280;53395;37.360;-122.046;2024-03-17T03:45:47;101187.59;;;13.70;100.00
66543;BME280;53395;37.360;-122.046;2024-03-17T03:48:32;101198.28;;;13.63;100.00
66543;BME280;53395;37.360;-122.046;2024-03-17T03:51:18;101200.91;;;13.63;100.00
66543;BME280;53395;37.360;-122.046;2024-03-17T03:54:03;101202.72;;;13.59;100.00
66543;BME280;53395;37.360;-122.046;2024-03-17T03:56:50;101202.06;;;13.51;100.00
66543;BME280;53395;37.360;-122.046;2024-03-17T03:59:35;101215.22;;;13.49;100.00
66543;BME280;53395;37.360;-122.046;2024-03-17T04:02:20;101217.16;;;13.43;100.00
66543;BME280;53395;37.360;-122.046;2024-03-17T04:05:05;101216.34;;;13.39;100.00
66543;BME280;53395;37.360;-122.046;2024-03-17T04:07:50;101220.66;;;13.00;100.00
66543;BME280;53395;37.360;-122.046;2024-03-17T04:10:35;101222.97;;;13.15;100.00
66543;BME280;53395;37.360;-122.046;2024-03-17T04:13:20;101225.59;;;13.15;100.00
66543;BME280;53395;37.360;-122.046;2024-03-17T04:16:06;101224.59;;;13.21;100.00
66543;BME280;53395;37.360;-122.046;2024-03-17T04:18:51;101223.81;;;13.16;100.00
66543;BME280;53395;37.360;-122.046;2024-03-17T04:21:36;101237.72;;;13.21;100.00
66543;BME280;53395;37.360;-122.046;2024-03-17T04:24:20;101233.22;;;13.26;100.00
66543;BME280;53395;37.360;-122.046;2024-03-17T04:27:06;101243.81;;;12.79;100.00
66543;BME280;53395;37.360;-122.046;2024-03-17T04:29:54;101242.09;;;12.78;100.00
66543;BME280;53395;37.360;-122.046;2024-03-17T04:32:39;101259.75;;;12.70;100.00
66543;BME280;53395;37.360;-122.046;2024-03-17T04:35:25;101250.38;;;12.55;100.00
66543;BME280;53395;37.360;-122.046;2024-03-17T04:38:11;101252.31;;;12.45;100.00
66543;BME280;53395;37.360;-122.046;2024-03-17T04:40:56;101261.34;;;12.31;100.00
66543;BME280;53395;37.360;-122.046;2024-03-17T04:43:48;101257.56;;;12.44;100.00
66543;BME280;53395;37.360;-122.046;2024-03-17T04:46:33;101265.25;;;12.56;100.00
66543;BME280;53395;37.360;-122.046;2024-03-17T04:49:18;101270.66;;;12.47;100.00
66543;BME280;53395;37.360;-122.046;2024-03-17T04:52:03;101274.50;;;12.27;100.00
66543;BME280;53395;37.360;-122.046;2024-03-17T04:54:48;101280.25;;;11.95;100.00
66543;BME280;53395;37.360;-122.046;2024-03-17T04:57:33;101278.22;;;12.13;100.00
66543;BME280;53395;37.360;-122.046;2024-03-17T05:00:18;101286.13;;;12.11;100.00
66543;BME280;53395;37.360;-122.046;2024-03-17T05:03:03;101287.91;;;12.09;100.00
66543;BME280;53395;37.360;-122.046;2024-03-17T05:05:48;101287.41;;;12.38;100.00
66543;BME280;53395;37.360;-122.046;2024-03-17T05:08:45;101293.31;;;11.98;100.00
66543;BME280;53395;37.360;-122.046;2024-03-17T05:11:29;101295.03;;;12.52;100.00
66543;BME280;53395;37.360;-122.046;2024-03-17T05:14:14;101294.50;;;12.32;100.00
66543;BME280;53395;37.360;-122.046;2024-03-17T05:16:59;101304.22;;;12.25;100.00
66543;BME280;53395;37.360;-122.046;2024-03-17T05:19:44;101302.56;;;12.19;100.00
66543;BME280;53395;37.360;-122.046;2024-03-17T05:22:28;101297.66;;;11.99;100.00
66543;BME280;53395;37.360;-122.046;2024-03-17T05:25:13;101310.84;;;11.93;100.00
66543;BME280;53395;37.360;-122.046;2024-03-17T05:27:59;101312.13;;;11.63;100.00
66543;BME280;53395;37.360;-122.046;2024-03-17T05:30:44;101313.25;;;11.43;100.00
66543;BME280;53395;37.360;-122.046;2024-03-17T05:33:28;101316.53;;;11.59;100.00
66543;BME280;53395;37.360;-122.046;2024-03-17T05:36:13;101317.69;;;11.38;100.00
66543;BME280;53395;37.360;-122.046;2024-03-17T05:38:59;101323.06;;;11.26;100.00
66543;BME280;53395;37.360;-122.046;2024-03-17T05:41:44;101329.94;;;11.33;100.00
66543;BME280;53395;37.360;-122.046;2024-03-17T05:44:28;101322.09;;;11.33;100.00
66543;BME280;53395;37.360;-122.046;2024-03-17T05:47:13;101331.91;;;11.17;100.00
66543;BME280;53395;37.360;-122.046;2024-03-17T05:49:58;101327.47;;;11.23;100.00
66543;BME280;53395;37.360;-122.046;2024-03-17T05:52:43;101333.88;;;10.97;100.00
66543;BME280;53395;37.360;-122.046;2024-03-17T05:55:27;101335.59;;;10.98;100.00
66543;BME280;53395;37.360;-122.046;2024-03-17T05:58:13;101350.59;;;10.82;100.00
66543;BME280;53395;37.360;-122.046;2024-03-17T06:00:58;101348.00;;;10.79;100.00
66543;BME280;53395;37.360;-122.046;2024-03-17T06:03:45;101348.94;;;10.72;100.00
66543;BME280;53395;37.360;-122.046;2024-03-17T06:06:31;101361.16;;;10.70;100.00
66543;BME280;53395;37.360;-122.046;2024-03-17T06:09:16;101348.13;;;10.65;100.00
66543;BME280;53395;37.360;-122.046;2024-03-17T06:12:03;101357.75;;;10.60;100.00
66543;BME280;53395;37.360;-122.046;2024-03-17T06:14:49;101357.78;;;10.57;100.00
66543;BME280;53395;37.360;-122.046;2024-03-17T06:17:33;101357.72;;;10.65;100.00
66543;BME280;53395;37.360;-122.046;2024-03-17T06:20:25;101356.84;;;10.66;100.00
66543;BME280;53395;37.360;-122.046;2024-03-17T06:23:14;101347.34;;;10.55;100.00
66543;BME280;53395;37.360;-122.046;2024-03-17T06:26:00;101341.22;;;10.58;100.00
66543;BME280;53395;37.360;-122.046;2024-03-17T06:28:46;101340.56;;;10.33;100.00
66543;BME280;53395;37.360;-122.046;2024-03-17T06:31:31;101331.88;;;10.25;100.00
66543;BME280;53395;37.360;-122.046;2024-03-17T06:34:16;101334.41;;;10.39;100.00
66543;BME280;53395;37.360;-122.046;2024-03-17T06:37:02;101341.47;;;10.24;100.00
66543;BME280;53395;37.360;-122.046;2024-03-17T06:39:47;101343.25;;;10.21;100.00
66543;BME280;53395;37.360;-122.046;2024-03-17T06:42:32;101346.81;;;10.09;100.00
66543;BME280;53395;37.360;-122.046;2024-03-17T06:45:17;101335.47;;;10.10;100.00
66543;BME280;53395;37.360;-122.046;2024-03-17T06:48:05;101340.63;;;10.18;100.00
66543;BME280;53395;37.360;-122.046;2024-03-17T06:50:52;101336.25;;;10.24;100.00
66543;BME280;53395;37.360;-122.046;2024-03-17T06:53:39;101341.50;;;10.21;100.00
66543;BME280;53395;37.360;-122.046;2024-03-17T06:56:23;101337.88;;;10.41;100.00
66543;BME280;53395;37.360;-122.046;2024-03-17T06:59:09;101331.00;;;10.29;100.00
66543;BME280;53395;37.360;-122.046;2024-03-17T07:01:54;101332.81;;;10.19;100.00
66543;BME280;53395;37.360;-122.046;2024-03-17T07:04:39;101334.50;;;10.25;100.00
66543;BME280;53395;37.360;-122.046;2024-03-17T07:07:27;101327.50;;;10.27;100.00
66543;BME280;53395;37.360;-122.046;2024-03-17T07:10:12;101316.38;;;10.02;100.00
66543;BME280;53395;37.360;-122.046;2024-03-17T07:12:57;101332.03;;;10.05;100.00
66543;BME280;53395;37.360;-122.046;2024-03-17T07:15:47;101337.31;;;9.94;100.00
66543;BME280;53395;37.360;-122.046;2024-03-17T07:18:32;101343.59;;;9.67;100.00
66543;BME280;53395;37.360;-122.046;2024-03-17T07:21:21;101335.69;;;9.81;100.00
66543;BME280;53395;37.360;-122.046;2024-03-17T07:24:06;101336.50;;;9.83;100.00
66543;BME280;53395;37.360;-122.046;2024-03-17T07:26:50;101336.63;;;9.61;100.00
66543;BME280;53395;37.360;-122.046;2024-03-17T07:29:35;101333.19;;;9.56;100.00
66543;BME280;53395;37.360;-122.046;2024-03-17T07:32:20;101331.44;;;9.60;100.00
66543;BME280;53395;37.360;-122.046;2024-03-17T07:35:07;101330.63;;;9.47;100.00
66543;BME280;53395;37.360;-122.046;2024-03-17T07:37:52;101335.84;;;9.47;100.00
66543;BME280;53395;37.360;-122.046;2024-03-17T07:40:37;101338.47;;;9.45;100.00
66543;BME280;53395;37.360;-122.046;2024-03-17T07:43:23;101335.06;;;9.25;100.00
66543;BME280;53395;37.360;-122.046;2024-03-17T07:46:09;101328.06;;;9.33;100.00
66543;BME280;53395;37.360;-122.046;2024-03-17T07:48:57;101327.25;;;9.19;100.00
66543;BME280;53395;37.360;-122.046;2024-03-17T07:51:42;101328.16;;;9.08;100.00
66543;BME280;53395;37.360;-122.046;2024-03-17T07:54:28;101318.59;;;9.09;100.00
66543;BME280;53395;37.360;-122.046;2024-03-17T07:57:12;101322.06;;;9.13;100.00
66543;BME280;53395;37.360;-122.046;2024-03-17T07:59:59;101317.69;;;9.27;100.00
66543;BME280;53395;37.360;-122.046;2024-03-17T08:02:46;101323.78;;;9.17;100.00
66543;BME280;53395;37.360;-122.046;2024-03-17T08:05:31;101321.22;;;9.03;100.00
66543;BME280;53395;37.360;-122.046;2024-03-17T08:08:16;101325.59;;;8.99;100.00
66543;BME280;53395;37.360;-122.046;2024-03-17T08:11:02;101315.16;;;8.93;100.00
66543;BME280;53395;37.360;-122.046;2024-03-17T08:13:47;101309.09;;;8.89;100.00
66543;BME280;53395;37.360;-122.046;2024-03-17T08:16:32;101320.41;;;8.85;100.00
66543;BME280;53395;37.360;-122.046;2024-03-17T08:19:17;101309.13;;;8.76;100.00
66543;BME280;53395;37.360;-122.046;2024-03-17T08:22:02;101316.97;;;8.65;100.00
66543;BME280;53395;37.360;-122.046;2024-03-17T08:24:47;101300.44;;;8.77;100.00
66543;BME280;53395;37.360;-122.046;2024-03-17T08:27:31;101305.66;;;8.78;100.00
66543;BME280;53395;37.360;-122.046;2024-03-17T08:30:16;101314.34;;;8.66;100.00
66543;BME280;53395;37.360;-122.046;2024-03-17T08:33:02;101319.59;;;8.68;100.00
66543;BME280;53395;37.360;-122.046;2024-03-17T08:36:03;101316.06;;;8.81;100.00
66543;BME280;53395;37.360;-122.046;2024-03-17T08:38:49;101322.16;;;8.85;100.00
66543;BME280;53395;37.360;-122.046;2024-03-17T08:41:33;101326.50;;;8.74;100.00
66543;BME280;53395;37.360;-122.046;2024-03-17T08:44:18;101315.25;;;8.45;100.00
66543;BME280;53395;37.360;-122.046;2024-03-17T08:47:03;101323.91;;;8.51;100.00
66543;BME280;53395;37.360;-122.046;2024-03-17T08:49:51;101324.78;;;8.48;100.00
66543;BME280;53395;37.360;-122.046;2024-03-17T08:52:36;101308.25;;;8.37;100.00
66543;BME280;53395;37.360;-122.046;2024-03-17T08:55:21;101315.22;;;8.38;100.00
66543;BME280;53395;37.360;-122.046;2024-03-17T08:58:05;101326.50;;;8.34;100.00
66543;BME280;53395;37.360;-122.046;2024-03-17T09:00:50;101315.22;;;8.32;100.00
66543;BME280;53395;37.360;-122.046;2024-03-17T09:03:37;101312.63;;;8.30;100.00
66543;BME280;53395;37.360;-122.046;2024-03-17T09:06:24;101308.28;;;8.20;100.00
66543;BME280;53395;37.360;-122.046;2024-03-17T09:09:13;101310.88;;;8.24;100.00
66543;BME280;53395;37.360;-122.046;2024-03-17T09:11:58;101303.06;;;8.17;100.00
66543;BME280;53395;37.360;-122.046;2024-03-17T09:14:47;101303.94;;;8.34;100.00
66543;BME280;53395;37.360;-122.046;2024-03-17T09:17:32;101294.38;;;8.24;100.00
66543;BME280;53395;37.360;-122.046;2024-03-17T09:20:17;101300.44;;;8.32;100.00
66543;BME280;53395;37.360;-122.046;2024-03-17T09:23:02;101303.06;;;8.03;100.00
66543;BME280;53395;37.360;-122.046;2024-03-17T09:25:55;101306.56;;;8.33;100.00
66543;BME280;53395;37.360;-122.046;2024-03-17T09:28:40;101295.25;;;7.95;100.00
66543;BME280;53395;37.360;-122.046;2024-03-17T09:31:25;101303.03;;;8.01;100.00
66543;BME280;53395;37.360;-122.046;2024-03-17T09:34:10;101292.63;;;7.74;100.00
66543;BME280;53395;37.360;-122.046;2024-03-17T09:36:55;101299.53;;;7.62;100.00
66543;BME280;53395;37.360;-122.046;2024-03-17T09:39:39;101295.19;;;7.60;100.00
66543;BME280;53395;37.360;-122.046;2024-03-17T09:42:24;101291.72;;;7.62;100.00
66543;BME280;53395;37.360;-122.046;2024-03-17T09:45:10;101302.13;;;7.70;100.00
66543;BME280;53395;37.360;-122.046;2024-03-17T09:47:55;101295.22;;;7.74;100.00
66543;BME280;53395;37.360;-122.046;2024-03-17T09:50:41;101296.94;;;7.70;100.00
66543;BME280;53395;37.360;-122.046;2024-03-17T09:53:27;101302.13;;;7.64;100.00
66543;BME280;53395;37.360;-122.046;2024-03-17T09:56:17;101300.34;;;7.49;100.00
66543;BME280;53395;37.360;-122.046;2024-03-17T09:59:03;101296.09;;;7.90;100.00
66543;BME280;53395;37.360;-122.046;2024-03-17T10:01:48;101298.69;;;7.87;100.00
66543;BME280;53395;37.360;-122.046;2024-03-17T10:04:33;101296.97;;;7.87;100.00
66543;BME280;53395;37.360;-122.046;2024-03-17T10:07:37;101296.97;;;7.99;100.00
66543;BME280;53395;37.360;-122.046;2024-03-17T10:10:22;101292.59;;;7.66;100.00
66543;BME280;53395;37.360;-122.046;2024-03-17T10:13:12;101288.22;;;7.51;100.00
66543;BME280;53395;37.360;-122.046;2024-03-17T10:15:57;101291.69;;;7.49;100.00
66543;BME280;53395;37.360;-122.046;2024-03-17T10:18:41;101283.03;;;7.60;100.00
66543;BME280;53395;37.360;-122.046;2024-03-17T10:21:27;101284.75;;;7.46;100.00
66543;BME280;53395;37.360;-122.046;2024-03-17T10:24:22;101283.00;;;7.42;100.00
66543;BME280;53395;37.360;-122.046;2024-03-17T10:27:10;101284.69;;;7.32;100.00
66543;BME280;53395;37.360;-122.046;2024-03-17T10:29:56;101285.53;;;7.22;100.00
66543;BME280;53395;37.360;-122.046;2024-03-17T10:32:41;101284.69;;;7.31;100.00
66543;BME280;53395;37.360;-122.046;2024-03-17T10:35:36;101281.16;;;7.13;100.00
66543;BME280;53395;37.360;-122.046;2024-03-17T10:38:24;101285.56;;;7.30;100.00
66543;BME280;53395;37.360;-122.046;2024-03-17T10:41:09;101283.84;;;7.35;100.00
66543;BME280;53395;37.360;-122.046;2024-03-17T10:43:56;101292.50;;;7.32;100.00
66543;BME280;53395;37.360;-122.046;2024-03-17T10:46:42;101285.50;;;7.19;100.00
66543;BME280;53395;37.360;-122.046;2024-03-17T10:49:33;101285.44;;;7.05;100.00
66543;BME280;53395;37.360;-122.046;2024-03-17T10:52:18;101285.41;;;6.94;100.00
66543;BME280;53395;37.360;-122.046;2024-03-17T10:55:08;101287.19;;;7.06;100.00
66543;BME280;53395;37.360;-122.046;2024-03-17T10:57:55;101278.50;;;7.01;100.00
66543;BME280;53395;37.360;-122.046;2024-03-17T11:00:42;101274.03;;;6.74;100.00
66543;BME280;53395;37.360;-122.046;2024-03-17T11:03:31;101281.91;;;6.88;100.00
66543;BME280;53395;37.360;-122.046;2024-03-17T11:06:17;101279.34;;;6.95;100.00
66543;BME280;53395;37.360;-122.046;2024-03-17T11:09:02;101276.75;;;6.94;100.00
66543;BME280;53395;37.360;-122.046;2024-03-17T11:11:48;101275.13;;;7.17;100.00
66543;BME280;53395;37.360;-122.046;2024-03-17T11:14:33;101270.72;;;7.01;100.00
66543;BME280;53395;37.360;-122.046;2024-03-17T11:17:19;101270.78;;;7.21;100.00
66543;BME280;53395;37.360;-122.046;2024-03-17T11:20:15;101266.38;;;7.02;100.00
66543;BME280;53395;37.360;-122.046;2024-03-17T11:23:01;101264.63;;;6.94;100.00
66543;BME280;53395;37.360;-122.046;2024-03-17T11:25:52;101268.94;;;6.95;100.00
66543;BME280;53395;37.360;-122.046;2024-03-17T11:28:45;101275.88;;;6.92;100.00
66543;BME280;53395;37.360;-122.046;2024-03-17T11:31:38;101263.72;;;6.91;100.00
66543;BME280;53395;37.360;-122.046;2024-03-17T11:37:40;101269.78;;;6.87;100.00
66543;BME280;53395;37.360;-122.046;2024-03-17T11:40:26;101258.53;;;6.91;100.00
66543;BME280;53395;37.360;-122.046;2024-03-17T11:43:16;101256.78;;;6.90;100.00
66543;BME280;53395;37.360;-122.046;2024-03-17T11:46:01;101254.13;;;6.73;100.00
66543;BME280;53395;37.360;-122.046;2024-03-17T11:48:47;101245.34;;;6.52;100.00
66543;BME280;53395;37.360;-122.046;2024-03-17T11:51:34;101266.22;;;6.69;100.00
66543;BME280;53395;37.360;-122.046;2024-03-17T11:54:22;101261.88;;;6.70;100.00
66543;BME280;53395;37.360;-122.046;2024-03-17T11:57:13;101248.78;;;6.50;100.00
66543;BME280;53395;37.360;-122.046;2024-03-17T11:59:58;101248.78;;;6.53;100.00
66543;BME280;53395;37.360;-122.046;2024-03-17T12:02:48;101249.63;;;6.47;100.00
66543;BME280;53395;37.360;-122.046;2024-03-17T12:05:33;101253.97;;;6.47;100.00
66543;BME280;53395;37.360;-122.046;2024-03-17T12:08:21;101264.97;;;6.15;100.00
66543;BME280;53395;37.360;-122.046;2024-03-17T12:11:19;101253.78;;;6.22;100.00
66543;BME280;53395;37.360;-122.046;2024-03-17T12:14:18;101265.88;;;6.19;100.00
66543;BME280;53395;37.360;-122.046;2024-03-17T12:17:08;101264.19;;;6.24;100.00
66543;BME280;53395;37.360;-122.046;2024-03-17T12:19:53;101271.94;;;6.21;100.00
66543;BME280;53395;37.360;-122.046;2024-03-17T12:22:40;101269.34;;;6.21;100.00
66543;BME280;53395;37.360;-122.046;2024-03-17T12:25:26;101268.50;;;6.22;100.00
66543;BME280;53395;37.360;-122.046;2024-03-17T12:28:17;101271.16;;;6.31;100.00
66543;BME280;53395;37.360;-122.046;2024-03-17T12:31:02;101270.22;;;6.21;100.00
66543;BME280;53395;37.360;-122.046;2024-03-17T12:33:47;101268.44;;;6.17;100.00
66543;BME280;53395;37.360;-122.046;2024-03-17T12:36:32;101274.56;;;6.24;100.00
66543;BME280;53395;37.360;-122.046;2024-03-17T12:39:30;101276.16;;;6.05;100.00
66543;BME280;53395;37.360;-122.046;2024-03-17T12:42:22;101278.69;;;6.02;100.00
66543;BME280;53395;37.360;-122.046;2024-03-17T12:45:09;101288.16;;;5.97;100.00
66543;BME280;53395;37.360;-122.046;2024-03-17T12:47:54;101287.22;;;5.91;100.00
66543;BME280;53395;37.360;-122.046;2024-03-17T12:50:46;101281.94;;;5.81;100.00
66543;BME280;53395;37.360;-122.046;2024-03-17T12:53:31;101287.81;;;5.64;100.00
66543;BME280;53395;37.360;-122.046;2024-03-17T12:56:23;101298.31;;;5.75;100.00
66543;BME280;53395;37.360;-122.046;2024-03-17T12:59:45;101297.34;;;5.62;100.00
66543;BME280;53395;37.360;-122.046;2024-03-17T13:02:48;101300.72;;;5.57;100.00
66543;BME280;53395;37.360;-122.046;2024-03-17T13:05:34;101295.59;;;5.64;100.00
66543;BME280;53395;37.360;-122.046;2024-03-17T13:08:19;101309.19;;;5.42;100.00
66543;BME280;53395;37.360;-122.046;2024-03-17T13:11:08;101310.25;;;5.59;100.00
66543;BME280;53395;37.360;-122.046;2024-03-17T13:13:53;101312.00;;;5.60;100.00
66543;BME280;53395;37.360;-122.046;2024-03-17T13:16:38;101310.22;;;5.56;100.00
66543;BME280;53395;37.360;-122.046;2024-03-17T13:19:23;101314.66;;;5.68;100.00
66543;BME280;53395;37.360;-122.046;2024-03-17T13:22:09;101310.97;;;5.47;100.00
66543;BME280;53395;37.360;-122.046;2024-03-17T13:24:54;101311.72;;;5.37;100.00
66543;BME280;53395;37.360;-122.046;2024-03-17T13:27:39;101316.19;;;5.49;100.00
66543;BME280;53395;37.360;-122.046;2024-03-17T13:30:24;101312.75;;;5.51;100.00
66543;BME280;53395;37.360;-122.046;2024-03-17T13:33:11;101309.22;;;5.43;100.00
66543;BME280;53395;37.360;-122.046;2024-03-17T13:35:56;101315.28;;;5.47;100.00
66543;BME280;53395;37.360;-122.046;2024-03-17T13:38:40;101311.81;;;5.45;100.00
66543;BME280;53395;37.360;-122.046;2024-03-17T13:41:25;101316.16;;;5.46;100.00
66543;BME280;53395;37.360;-122.046;2024-03-17T13:44:10;101325.63;;;5.45;100.00
66543;BME280;53395;37.360;-122.046;2024-03-17T13:46:55;101322.03;;;5.33;100.00
66543;BME280;53395;37.360;-122.046;2024-03-17T13:49:40;101320.34;;;5.35;100.00
66543;BME280;53395;37.360;-122.046;2024-03-17T13:52:25;101329.91;;;5.40;100.00
66543;BME280;53395;37.360;-122.046;2024-03-17T13:55:28;101317.69;;;5.30;100.00